Time;durP1;ratioP1;P1;durP2;ratioP2;P2;SDS_P1;SDS_P2;PMS_P1;PMS_P2;Temp;Humidity;BMP_temperature;BMP_pressure;BME280_temperature;BME280_humidity;BME280_pressure;Samples;Min_cycle;Max_cycle;Signal;HPM_P1;HPM_P2
2022/04/08 00:00:46;;;;;;;1999.90;999.90;;;6.70;99.90;;;;;;5012102;28;20220;-73
2022/04/08 00:03:11;;;;;;;1999.90;999.90;;;6.70;99.90;;;;;;5012162;28;20319;-73
2022/04/08 00:05:37;;;;;;;1999.90;999.90;;;6.70;99.90;;;;;;5012619;28;20181;-74
2022/04/08 00:08:03;;;;;;;1999.90;999.90;;;6.70;99.90;;;;;;5016025;28;20196;-74
2022/04/08 00:10:29;;;;;;;1999.90;999.90;;;6.70;99.90;;;;;;5015861;28;20493;-73
2022/04/08 00:12:54;;;;;;;1999.90;999.90;;;6.60;99.90;;;;;;5015971;28;20419;-74
2022/04/08 00:15:20;;;;;;;1999.90;999.90;;;6.70;99.90;;;;;;5015678;28;20529;-74
2022/04/08 00:17:45;;;;;;;1999.90;999.90;;;6.60;99.90;;;;;;5015865;28;20173;-74
2022/04/08 00:20:11;;;;;;;1999.90;999.90;;;6.60;99.90;;;;;;5014593;28;20208;-73
2022/04/08 00:22:41;;;;;;;1999.90;999.90;;;6.60;99.90;;;;;;5016125;28;20188;-74
2022/04/08 00:25:12;;;;;;;1999.90;999.90;;;6.60;99.90;;;;;;5015481;28;20431;-74
2022/04/08 00:27:38;;;;;;;1999.90;999.90;;;6.60;99.90;;;;;;5015675;28;20816;-73
2022/04/08 00:30:05;;;;;;;1999.90;999.90;;;6.60;99.90;;;;;;5015539;28;20448;-74
2022/04/08 00:32:32;;;;;;;1999.90;999.90;;;6.60;99.90;;;;;;5015643;28;20499;-73
2022/04/08 00:34:58;;;;;;;1999.90;999.90;;;6.60;99.90;;;;;;5015323;28;20414;-74
2022/04/08 00:37:23;;;;;;;1999.90;999.90;;;6.60;99.90;;;;;;5015582;28;20412;-73
2022/04/08 00:39:50;;;;;;;1999.90;999.90;;;6.60;99.90;;;;;;5015346;28;20259;-73
2022/04/08 00:42:15;;;;;;;1999.90;999.90;;;6.70;99.90;;;;;;5014463;28;20646;-73
2022/04/08 00:44:41;;;;;;;1999.90;999.90;;;6.70;99.90;;;;;;5015108;28;20443;-73
2022/04/08 00:47:06;;;;;;;1999.90;999.90;;;6.70;99.90;;;;;;5015309;28;20260;-74
2022/04/08 00:49:34;;;;;;;1999.90;999.90;;;6.80;99.90;;;;;;5015179;28;20312;-73
2022/04/08 00:52:00;;;;;;;1999.90;999.90;;;6.80;99.90;;;;;;5015280;28;20172;-73
2022/04/08 00:54:27;;;;;;;1999.90;999.90;;;6.80;99.90;;;;;;5014897;28;20410;-72
2022/04/08 00:56:53;;;;;;;1999.90;999.90;;;6.70;99.90;;;;;;5015183;28;20823;-74
2022/04/08 00:59:18;;;;;;;1999.90;999.90;;;6.70;99.90;;;;;;5015088;28;20424;-72
2022/04/08 01:01:44;;;;;;;1999.90;999.90;;;6.70;99.90;;;;;;5015093;28;20200;-73
2022/04/08 01:04:10;;;;;;;1999.90;999.90;;;6.70;99.90;;;;;;5014683;28;20173;-73
2022/04/08 01:06:36;;;;;;;1999.90;999.90;;;6.70;99.90;;;;;;5014939;28;20173;-73
2022/04/08 01:09:01;;;;;;;1999.90;999.90;;;6.60;99.90;;;;;;5014845;28;20204;-74
2022/04/08 01:11:27;;;;;;;1999.90;999.90;;;6.50;99.90;;;;;;5014954;28;20173;-73
2022/04/08 01:13:53;;;;;;;1999.90;999.90;;;6.50;99.90;;;;;;5014785;28;20165;-72
2022/04/08 01:16:19;;;;;;;1999.90;999.90;;;6.50;99.90;;;;;;5014353;28;20205;-73
2022/04/08 01:18:45;;;;;;;1999.90;999.90;;;6.50;99.90;;;;;;5014691;28;20181;-73
2022/04/08 01:21:11;;;;;;;1999.90;999.90;;;6.40;99.90;;;;;;5014635;28;20777;-73
2022/04/08 01:23:37;;;;;;;1999.90;999.90;;;6.40;99.90;;;;;;5014643;28;20206;-73
2022/04/08 01:26:06;;;;;;;1999.90;999.90;;;6.50;99.90;;;;;;5014373;28;20181;-72
2022/04/08 01:28:32;;;;;;;1999.90;999.90;;;6.40;99.90;;;;;;5014580;28;20456;-72
2022/04/08 01:30:59;;;;;;;1999.90;999.90;;;6.30;99.90;;;;;;5014392;28;20455;-73
2022/04/08 01:33:25;;;;;;;1999.90;999.90;;;6.20;99.90;;;;;;5014504;28;20423;-73
2022/04/08 01:35:50;;;;;;;1999.90;999.90;;;6.20;99.90;;;;;;5014142;28;20408;-72
2022/04/08 01:38:16;;;;;;;1999.90;999.90;;;6.10;99.90;;;;;;5014354;28;20411;-72
2022/04/08 01:40:41;;;;;;;1999.90;999.90;;;6.10;99.90;;;;;;5014277;28;20658;-72
2022/04/08 01:43:07;;;;;;;1999.90;999.90;;;6.20;99.90;;;;;;5014389;28;20180;-72
2022/04/08 01:45:33;;;;;;;1999.90;999.90;;;6.30;99.90;;;;;;5014079;28;20182;-72
2022/04/08 01:47:58;;;;;;;1999.90;999.90;;;6.40;99.90;;;;;;5014130;28;20247;-72
2022/04/08 01:50:24;;;;;;;1999.90;999.90;;;6.50;99.90;;;;;;5014137;28;20189;-71
2022/04/08 01:52:49;;;;;;;1999.90;999.90;;;6.50;99.90;;;;;;5014318;28;20185;-72
2022/04/08 01:55:15;;;;;;;1999.90;999.90;;;6.60;99.90;;;;;;5013860;28;20580;-72
2022/04/08 01:57:42;;;;;;;1999.90;999.90;;;6.60;99.90;;;;;;5014011;28;20177;-72
2022/04/08 02:00:09;;;;;;;1999.90;999.90;;;6.60;99.90;;;;;;5012681;28;20320;-72
2022/04/08 02:02:35;;;;;;;1999.90;999.90;;;6.60;99.90;;;;;;5014001;28;20439;-73
2022/04/08 02:05:01;;;;;;;1999.90;999.90;;;6.50;99.90;;;;;;5013609;28;20494;-73
2022/04/08 02:07:27;;;;;;;1999.90;999.90;;;6.50;99.90;;;;;;5013723;28;20456;-73
2022/04/08 02:09:53;;;;;;;1999.90;999.90;;;6.50;99.90;;;;;;5013760;28;20434;-72
2022/04/08 02:12:19;;;;;;;1999.90;999.90;;;6.50;99.90;;;;;;5013822;28;20168;-73
2022/04/08 02:14:44;;;;;;;1999.90;999.90;;;6.40;99.90;;;;;;5013439;28;20413;-72
2022/04/08 02:17:10;;;;;;;1999.90;999.90;;;6.40;99.90;;;;;;5013614;28;20643;-72
2022/04/08 02:19:36;;;;;;;1999.90;999.90;;;6.30;99.90;;;;;;5013516;28;20646;-72
2022/04/08 02:22:03;;;;;;;1999.90;999.90;;;6.30;99.90;;;;;;5013504;28;20176;-72
2022/04/08 02:24:29;;;;;;;1999.90;999.90;;;6.30;99.90;;;;;;5013320;28;20506;-72
2022/04/08 02:26:55;;;;;;;1999.90;999.90;;;6.30;99.90;;;;;;5013430;28;20423;-72
2022/04/08 02:29:21;;;;;;;1999.90;999.90;;;6.30;99.90;;;;;;5012649;28;20456;-72
2022/04/08 02:31:47;;;;;;;1999.90;999.90;;;6.40;99.90;;;;;;5013848;28;20878;-73
2022/04/08 02:34:12;;;;;;;1999.90;999.90;;;6.40;99.90;;;;;;5013111;28;20412;-73
2022/04/08 02:36:38;;;;;;;1999.90;999.90;;;6.30;99.90;;;;;;5013371;28;20307;-73
2022/04/08 02:39:04;;;;;;;1999.90;999.90;;;6.40;99.90;;;;;;5013183;28;20620;-73
2022/04/08 02:41:29;;;;;;;1999.90;999.90;;;6.40;99.90;;;;;;5013239;28;20176;-73
2022/04/08 02:43:55;;;;;;;1999.90;999.90;;;6.50;99.90;;;;;;5013108;28;20959;-73
2022/04/08 02:46:21;;;;;;;1999.90;999.90;;;6.40;99.90;;;;;;5012947;28;20179;-72
2022/04/08 02:48:46;;;;;;;1999.90;999.90;;;6.40;99.90;;;;;;5011766;28;20232;-73
2022/04/08 02:51:12;;;;;;;1999.90;999.90;;;6.40;99.90;;;;;;5012943;28;20639;-73
2022/04/08 02:53:37;;;;;;;1999.90;999.90;;;6.40;99.90;;;;;;5013161;28;20223;-73
2022/04/08 02:56:03;;;;;;;1999.90;999.90;;;6.40;99.90;;;;;;5012805;28;20248;-73
2022/04/08 02:58:29;;;;;;;1999.90;999.90;;;6.40;99.90;;;;;;5012963;28;20173;-73
2022/04/08 03:00:58;;;;;;;1999.90;999.90;;;6.40;99.90;;;;;;5012773;28;20861;-73
2022/04/08 03:03:26;;;;;;;1999.90;999.90;;;6.40;99.90;;;;;;5012912;28;20176;-73
2022/04/08 03:05:52;;;;;;;1999.90;999.90;;;6.40;99.90;;;;;;5012583;28;20416;-73
2022/04/08 03:08:17;;;;;;;1999.90;999.90;;;6.30;99.90;;;;;;5012785;28;20451;-73
2022/04/08 03:10:43;;;;;;;1999.90;999.90;;;6.20;99.90;;;;;;5012754;28;20423;-73
2022/04/08 03:13:10;;;;;;;1999.90;999.90;;;6.20;99.90;;;;;;5012795;28;20180;-73
2022/04/08 03:15:35;;;;;;;1999.90;999.90;;;6.10;99.90;;;;;;5012660;28;20168;-73
2022/04/08 03:18:01;;;;;;;1999.90;999.90;;;6.10;99.90;;;;;;5012659;28;20412;-72
2022/04/08 03:20:27;;;;;;;1999.90;999.90;;;6.00;99.90;;;;;;5012498;28;20714;-73
2022/04/08 03:22:52;;;;;;;1999.90;999.90;;;6.00;99.90;;;;;;5012555;28;20172;-72
2022/04/08 03:25:19;;;;;;;1999.90;999.90;;;5.90;99.90;;;;;;5012376;28;20177;-72
2022/04/08 03:27:45;;;;;;;1999.90;999.90;;;5.90;99.90;;;;;;5012459;28;20192;-72
2022/04/08 03:30:11;;;;;;;1999.90;999.90;;;5.90;99.90;;;;;;5012166;28;20562;-72
2022/04/08 03:32:36;;;;;;;1999.90;999.90;;;5.80;99.90;;;;;;5012418;28;20454;-72
2022/04/08 03:35:02;;;;;;;1999.90;999.90;;;5.80;99.90;;;;;;5012163;28;20407;-73
2022/04/08 03:37:29;;;;;;;1999.90;999.90;;;5.70;99.90;;;;;;5012343;28;20239;-72
2022/04/08 03:39:55;;;;;;;1999.90;999.90;;;5.70;99.90;;;;;;5012275;28;20224;-72
2022/04/08 03:42:21;;;;;;;1999.90;999.90;;;5.70;99.90;;;;;;5012354;28;20439;-72
2022/04/08 03:44:47;;;;;;;1999.90;999.90;;;5.70;99.90;;;;;;5012127;28;20264;-72
2022/04/08 03:47:12;;;;;;;1999.90;999.90;;;5.60;99.90;;;;;;5012258;28;20486;-72
2022/04/08 03:49:38;;;;;;;1999.90;999.90;;;5.60;99.90;;;;;;5010879;28;20806;-73
2022/04/08 03:52:05;;;;;;;1999.90;999.90;;;5.60;99.90;;;;;;5012150;28;20180;-72
2022/04/08 03:54:31;;;;;;;1999.90;999.90;;;5.60;99.90;;;;;;5012028;28;20169;-72
2022/04/08 03:56:56;;;;;;;1999.90;999.90;;;5.60;99.90;;;;;;5012199;28;20416;-72
2022/04/08 03:59:23;;;;;;;1999.90;999.90;;;5.50;99.90;;;;;;5012088;28;20268;-72
2022/04/08 04:01:49;;;;;;;1999.90;999.90;;;5.50;99.90;;;;;;5012200;28;20407;-73
2022/04/08 04:04:15;;;;;;;1999.90;999.90;;;5.50;99.90;;;;;;5011865;28;20405;-72
2022/04/08 04:06:41;;;;;;;1999.90;999.90;;;5.50;99.90;;;;;;5012051;28;20408;-72
2022/04/08 04:09:07;;;;;;;1999.90;999.90;;;5.40;99.90;;;;;;5011938;28;20462;-72
2022/04/08 04:11:33;;;;;;;1999.90;999.90;;;5.50;99.90;;;;;;5012134;28;20173;-72
2022/04/08 04:13:59;;;;;;;1999.90;999.90;;;5.40;99.90;;;;;;5011826;28;20412;-72
2022/04/08 04:16:26;;;;;;;1999.90;999.90;;;5.40;99.90;;;;;;5011986;28;20482;-73
2022/04/08 04:18:52;;;;;;;1999.90;999.90;;;5.40;99.90;;;;;;5012029;28;21112;-72
2022/04/08 04:21:17;;;;;;;1999.90;999.90;;;5.40;99.90;;;;;;5010583;28;20439;-72
2022/04/08 04:23:43;;;;;;;1999.90;999.90;;;5.40;99.90;;;;;;5011924;28;20415;-73
2022/04/08 04:26:09;;;;;;;1999.90;999.90;;;5.40;99.90;;;;;;5011989;28;20174;-72
2022/04/08 04:28:35;;;;;;;1999.90;999.90;;;5.40;99.90;;;;;;5012086;28;20203;-72
2022/04/08 04:31:03;;;;;;;1999.90;999.90;;;5.40;99.90;;;;;;5012265;28;20933;-72
2022/04/08 04:33:29;;;;;;;1999.90;999.90;;;5.40;99.90;;;;;;5012311;28;20170;-72
2022/04/08 04:35:55;;;;;;;1999.90;999.90;;;5.40;99.90;;;;;;5012101;28;20175;-72
2022/04/08 04:38:21;;;;;;;1999.90;999.90;;;5.40;99.90;;;;;;5012531;28;20443;-73
2022/04/08 04:40:47;;;;;;;1999.90;999.90;;;5.40;99.90;;;;;;5012634;28;20423;-72
2022/04/08 04:43:12;;;;;;;1999.90;999.90;;;5.70;99.90;;;;;;5012570;28;20478;-72
2022/04/08 04:45:39;;;;;;;1999.90;999.90;;;5.50;99.90;;;;;;5012206;28;20165;-72
2022/04/08 04:48:05;;;;;;;1999.90;999.90;;;5.50;99.90;;;;;;5012583;28;20224;-72
2022/04/08 04:50:31;;;;;;;1999.90;999.90;;;5.40;99.90;;;;;;5012462;28;20435;-72
2022/04/08 04:52:57;;;;;;;1999.90;999.90;;;5.30;99.90;;;;;;5015448;28;20404;-72
2022/04/08 04:55:22;;;;;;;1999.90;999.90;;;5.30;99.90;;;;;;5015685;28;20170;-72
2022/04/08 04:57:48;;;;;;;1999.90;999.90;;;5.20;99.90;;;;;;5016079;28;20180;-72
2022/04/08 05:00:16;;;;;;;1999.90;999.90;;;5.20;99.90;;;;;;5016107;28;20562;-72
2022/04/08 05:02:42;;;;;;;1999.90;999.90;;;5.20;99.90;;;;;;5016109;28;20173;-72
2022/04/08 05:05:08;;;;;;;1999.90;999.90;;;5.20;99.90;;;;;;5015429;28;20431;-72
2022/04/08 05:07:34;;;;;;;1999.90;999.90;;;5.20;99.90;;;;;;5015663;28;20451;-72
2022/04/08 05:10:01;;;;;;;1999.90;999.90;;;5.20;99.90;;;;;;5015510;28;20431;-72
2022/04/08 05:12:26;;;;;;;1999.90;999.90;;;5.20;99.90;;;;;;5015834;28;20165;-72
2022/04/08 05:14:52;;;;;;;1999.90;999.90;;;5.30;99.90;;;;;;5015193;28;20406;-72
2022/04/08 05:17:17;;;;;;;1999.90;999.90;;;5.30;99.90;;;;;;5015600;28;20858;-72
2022/04/08 05:19:43;;;;;;;1999.90;999.90;;;5.30;99.90;;;;;;5015283;28;20185;-72
2022/04/08 05:22:08;;;;;;;1999.90;999.90;;;5.30;99.90;;;;;;5015299;28;20169;-72
2022/04/08 05:24:34;;;;;;;1999.90;999.90;;;5.40;99.90;;;;;;5015409;28;20177;-73
2022/04/08 05:26:59;;;;;;;1999.90;999.90;;;5.40;99.90;;;;;;5015297;28;20176;-72
2022/04/08 05:29:25;;;;;;;1999.90;999.90;;;5.40;99.90;;;;;;5015850;28;20718;-72
2022/04/08 05:31:51;;;;;;;1999.90;999.90;;;5.40;99.90;;;;;;5016198;28;20161;-72
2022/04/08 05:34:16;;;;;;;1999.90;999.90;;;5.40;99.90;;;;;;5015384;28;20172;-72
2022/04/08 05:36:42;;;;;;;1999.90;999.90;;;5.40;99.90;;;;;;5015826;28;20191;-72
2022/04/08 05:39:08;;;;;;;1999.90;999.90;;;5.50;99.90;;;;;;5015279;28;20181;-72
2022/04/08 05:41:33;;;;;;;1999.90;999.90;;;5.60;99.90;;;;;;5015864;28;20223;-72
2022/04/08 05:44:00;;;;;;;1999.90;999.90;;;5.70;99.90;;;;;;5015246;28;20169;-71
2022/04/08 05:46:26;;;;;;;1999.90;999.90;;;5.70;99.90;;;;;;5015982;28;20196;-72
2022/04/08 05:48:52;;;;;;;1999.90;999.90;;;5.90;99.90;;;;;;5015565;28;20455;-71
2022/04/08 05:51:17;;;;;;;1999.90;999.90;;;5.90;99.90;;;;;;5015687;28;20183;-72
2022/04/08 05:53:43;;;;;;;1999.90;999.90;;;6.00;99.90;;;;;;5015407;28;20235;-72
2022/04/08 05:56:08;;;;;;;1999.90;999.90;;;6.10;99.90;;;;;;5015073;28;20176;-72
2022/04/08 05:58:34;;;;;;;1999.90;999.90;;;6.20;99.90;;;;;;5015468;28;20212;-71
2022/04/08 06:01:00;;;;;;;1999.90;999.90;;;6.30;99.90;;;;;;5015128;28;20188;-72
2022/04/08 06:03:26;;;;;;;1999.90;999.90;;;6.40;99.90;;;;;;5014143;28;20204;-72
2022/04/08 06:05:51;;;;;;;1999.90;999.90;;;6.60;99.90;;;;;;5015120;28;20404;-72
2022/04/08 06:08:17;;;;;;;1999.90;999.90;;;6.70;99.90;;;;;;5014921;28;20223;-72
2022/04/08 06:10:42;;;;;;;1999.90;999.90;;;6.70;99.90;;;;;;5014630;28;20216;-72
2022/04/08 06:13:08;;;;;;;1999.90;999.90;;;6.80;99.90;;;;;;5015305;28;20218;-72
2022/04/08 06:15:35;;;;;;;1999.90;999.90;;;6.90;99.90;;;;;;5014187;28;20170;-71
2022/04/08 06:18:00;;;;;;;1999.90;999.90;;;7.00;99.90;;;;;;5013663;28;20161;-71
2022/04/08 06:20:26;;;;;;;1999.90;999.90;;;6.90;99.90;;;;;;5013506;28;20945;-71
2022/04/08 06:22:53;;;;;;;1999.90;999.90;;;6.90;99.90;;;;;;5013590;28;20219;-72
2022/04/08 06:25:21;;;;;;;1999.90;999.90;;;6.90;99.90;;;;;;5013301;28;20610;-72
2022/04/08 06:28:04;;;;;;;1999.90;999.90;;;7.00;99.90;;;;;;5013421;28;20529;-72
2022/04/08 06:30:33;;;;;;;1999.90;999.90;;;7.00;99.90;;;;;;5013319;28;20961;-72
2022/04/08 06:32:59;;;;;;;1999.90;999.90;;;7.10;99.90;;;;;;5013444;28;20438;-72
2022/04/08 06:35:25;;;;;;;1999.90;999.90;;;7.20;99.90;;;;;;5013054;28;20491;-73
2022/04/08 06:37:56;;;;;;;1999.90;999.90;;;7.30;99.90;;;;;;5013313;28;20408;-72
2022/04/08 06:40:22;;;;;;;1999.90;999.90;;;7.30;99.90;;;;;;5013306;28;20673;-72
2022/04/08 06:42:48;;;;;;;1999.90;999.90;;;7.50;99.90;;;;;;5013214;28;20412;-72
2022/04/08 06:45:13;;;;;;;1999.90;999.90;;;7.60;99.90;;;;;;5011634;28;20638;-74
2022/04/08 06:47:46;;;;;;;1999.90;999.90;;;7.60;99.90;;;;;;5013026;28;20199;-72
2022/04/08 06:50:12;;;;;;;1999.90;999.90;;;7.60;99.90;;;;;;5013009;28;20189;-72
2022/04/08 06:52:37;;;;;;;1999.90;999.90;;;7.50;99.90;;;;;;5013069;28;20503;-71
2022/04/08 06:55:03;;;;;;;1999.90;999.90;;;7.60;99.90;;;;;;5012802;28;20161;-71
2022/04/08 06:57:28;;;;;;;1999.90;999.90;;;7.70;99.90;;;;;;5012990;28;20634;-72
2022/04/08 06:59:54;;;;;;;1999.90;999.90;;;7.70;99.90;;;;;;5012925;28;20427;-72
2022/04/08 07:02:20;;;;;;;1999.90;999.90;;;7.80;99.90;;;;;;5012851;28;20690;-72
2022/04/08 07:04:45;;;;;;;1999.90;999.90;;;8.00;99.90;;;;;;5011659;28;20230;-73
2022/04/08 07:07:11;;;;;;;1999.90;999.90;;;8.20;99.90;;;;;;5015018;28;20173;-73
2022/04/08 07:09:36;;;;;;;1999.90;999.90;;;8.30;99.90;;;;;;5015332;28;20197;-73
2022/04/08 07:12:02;;;;;;;1999.90;999.90;;;8.30;99.90;;;;;;5015905;28;20174;-72
2022/04/08 07:14:28;;;;;;;1999.90;999.90;;;8.20;99.90;;;;;;5015839;28;20694;-73
2022/04/08 07:16:54;;;;;;;1999.90;999.90;;;8.30;99.90;;;;;;5016123;28;20483;-73
2022/04/08 07:19:19;;;;;;;1999.90;999.90;;;8.20;99.90;;;;;;5016183;28;20701;-74
2022/04/08 07:21:45;;;;;;;1999.90;999.90;;;8.10;99.90;;;;;;5016662;28;20450;-74
2022/04/08 07:24:10;;;;;;;1999.90;999.90;;;8.20;99.90;;;;;;5016119;28;20169;-73
2022/04/08 07:26:36;;;;;;;1999.90;999.90;;;8.20;99.90;;;;;;5017155;28;20184;-72
2022/04/08 07:29:02;;;;;;;1999.90;999.90;;;8.30;99.90;;;;;;5016129;28;20280;-73
2022/04/08 07:31:27;;;;;;;1999.90;999.90;;;8.20;99.90;;;;;;5013247;28;20246;-74
2022/04/08 07:33:53;;;;;;;1999.90;999.90;;;8.20;99.90;;;;;;5016768;28;20169;-74
2022/04/08 07:36:19;;;;;;;1999.90;999.90;;;8.10;99.90;;;;;;5012723;28;20235;-74
2022/04/08 07:38:44;;;;;;;1999.90;999.90;;;8.10;99.90;;;;;;5016145;28;20172;-73
2022/04/08 07:41:10;;;;;;;1999.90;999.90;;;8.10;99.90;;;;;;5014622;28;20185;-74
2022/04/08 07:43:36;;;;;;;1999.90;999.90;;;8.00;99.90;;;;;;5014852;28;20170;-74
2022/04/08 07:46:01;;;;;;;1999.90;999.90;;;7.90;99.90;;;;;;5015105;28;20175;-74
2022/04/08 07:48:31;;;;;;;1999.90;999.90;;;7.90;99.90;;;;;;5014680;28;20235;-74
2022/04/08 07:50:57;;;;;;;1999.90;999.90;;;7.80;99.90;;;;;;5017616;28;20181;-73
2022/04/08 07:53:22;;;;;;;1999.90;999.90;;;7.80;99.90;;;;;;5015329;28;20407;-74
2022/04/08 07:55:48;;;;;;;1999.90;999.90;;;7.90;99.90;;;;;;5015571;28;20176;-73
2022/04/08 07:58:13;;;;;;;1999.90;999.90;;;7.90;99.90;;;;;;5014757;28;20181;-74
2022/04/08 08:00:39;;;;;;;1999.90;999.90;;;7.90;99.90;;;;;;5015960;28;20188;-73
2022/04/08 08:03:05;;;;;;;1999.90;999.90;;;7.90;99.90;;;;;;5016532;28;20191;-73
2022/04/08 08:05:32;;;;;;;1999.90;999.90;;;8.10;99.90;;;;;;5017510;28;20190;-73
2022/04/08 08:08:00;;;;;;;1999.90;999.90;;;8.20;99.90;;;;;;5015665;28;20224;-74
2022/04/08 08:10:32;;;;;;;1999.90;999.90;;;8.30;99.90;;;;;;5013843;28;20923;-74
2022/04/08 08:13:02;;;;;;;1999.90;999.90;;;8.30;99.90;;;;;;5013867;28;20391;-74
2022/04/08 08:15:29;;;;;;;1999.90;999.90;;;8.40;99.90;;;;;;5013517;28;20417;-74
2022/04/08 08:17:58;;;;;;;1999.90;999.90;;;8.50;99.90;;;;;;5014106;28;20834;-74
2022/04/08 08:20:25;;;;;;;1999.90;999.90;;;8.60;99.90;;;;;;5013375;28;20472;-73
2022/04/08 08:22:51;;;;;;;1999.90;999.90;;;8.70;99.90;;;;;;5014087;28;20416;-74
2022/04/08 08:25:18;;;;;;;1999.90;999.90;;;8.80;99.90;;;;;;5013557;28;20410;-73
2022/04/08 08:27:59;;;;;;;1999.90;999.90;;;8.70;99.90;;;;;;5015186;28;20455;-74
2022/04/08 08:30:27;;;;;;;1999.90;999.90;;;8.80;99.90;;;;;;5016449;28;20502;-74
2022/04/08 08:32:52;;;;;;;1999.90;999.90;;;8.80;99.90;;;;;;5062066;23;20493;-74
2022/04/08 08:35:20;;;;;;;1999.90;999.90;;;8.90;99.90;;;;;;5024456;28;20399;-73
2022/04/08 08:37:47;;;;;;;1999.90;999.90;;;8.90;99.90;;;;;;5023102;28;20703;-75
2022/04/08 08:40:15;;;;;;;1999.90;999.90;;;9.00;99.90;;;;;;5020082;28;20403;-73
2022/04/08 08:42:41;;;;;;;1999.90;999.90;;;9.00;99.90;;;;;;5015327;28;20432;-73
2022/04/08 08:45:09;;;;;;;1999.90;999.90;;;9.10;99.90;;;;;;5015406;28;20907;-73
2022/04/08 08:47:35;;;;;;;1999.90;999.90;;;9.20;99.90;;;;;;5015310;28;20445;-73
2022/04/08 08:50:01;;;;;;;1999.90;999.90;;;9.30;99.90;;;;;;5015361;28;20405;-73
2022/04/08 08:52:28;;;;;;;1999.90;999.90;;;9.30;99.90;;;;;;5015274;28;20461;-72
2022/04/08 08:54:54;;;;;;;1999.90;999.90;;;9.30;99.90;;;;;;5015003;28;20401;-72
2022/04/08 08:57:22;;;;;;;1999.90;999.90;;;9.30;99.90;;;;;;5015263;28;20448;-74
2022/04/08 08:59:50;;;;;;;1999.90;999.90;;;9.40;99.90;;;;;;5015122;28;20411;-73
2022/04/08 09:02:22;;;;;;;1999.90;999.90;;;9.40;99.90;;;;;;5014998;28;20430;-72
2022/04/08 09:04:51;;;;;;;1999.90;999.90;;;9.40;99.90;;;;;;5014857;28;20423;-73
2022/04/08 09:07:24;;;;;;;1999.90;999.90;;;9.60;99.90;;;;;;5014966;28;20397;-72
2022/04/08 09:09:52;;;;;;;1999.90;999.90;;;9.70;99.90;;;;;;5014926;28;20488;-72
2022/04/08 09:12:18;;;;;;;1999.90;999.90;;;9.70;99.90;;;;;;5014865;28;20696;-73
2022/04/08 09:14:49;;;;;;;1999.90;999.90;;;9.70;99.90;;;;;;5014681;28;20442;-73
2022/04/08 09:17:17;;;;;;;1999.90;999.90;;;9.80;99.90;;;;;;5014825;28;20415;-72
2022/04/08 09:19:47;;;;;;;1999.90;999.90;;;9.90;99.90;;;;;;5014811;28;20793;-73
2022/04/08 09:22:12;;;;;;;1999.90;999.90;;;9.80;99.90;;;;;;5014641;28;20783;-73
2022/04/08 09:24:38;;;;;;;1999.90;999.90;;;9.90;99.90;;;;;;5014446;28;20412;-72
2022/04/08 09:27:03;;;;;;;1999.90;999.90;;;9.90;99.90;;;;;;5014608;28;20772;-73
2022/04/08 09:29:29;;;;;;;1999.90;999.90;;;10.10;99.90;;;;;;5014503;28;20206;-74
2022/04/08 09:31:57;;;;;;;1999.90;999.90;;;10.10;99.90;;;;;;5014433;28;20204;-73
2022/04/08 09:34:23;;;;;;;1999.90;999.90;;;10.10;99.90;;;;;;5017824;28;20176;-74
2022/04/08 09:36:49;;;;;;;1999.90;999.90;;;10.10;99.90;;;;;;5023678;28;20413;-74
2022/04/08 09:39:14;;;;;;;1999.90;999.90;;;10.10;99.90;;;;;;5023584;28;20433;-74
2022/04/08 09:41:42;;;;;;;1999.90;999.90;;;10.10;99.90;;;;;;5025301;28;20191;-74
2022/04/08 09:44:09;;;;;;;1999.90;999.90;;;10.10;99.90;;;;;;5024195;28;20172;-74
2022/04/08 09:46:36;;;;;;;1999.90;999.90;;;10.00;99.90;;;;;;5026340;28;20430;-74
2022/04/08 09:49:05;;;;;;;1999.90;999.90;;;10.10;99.90;;;;;;5024066;28;20449;-74
2022/04/08 09:51:38;;;;;;;1999.90;999.90;;;10.20;99.90;;;;;;5026489;28;20424;-74
2022/04/08 09:54:06;;;;;;;1999.90;999.90;;;10.20;99.90;;;;;;5022566;28;20445;-74
2022/04/08 09:56:34;;;;;;;1999.90;999.90;;;10.20;99.90;;;;;;5022539;28;20924;-74
2022/04/08 09:59:13;;;;;;;1999.90;999.90;;;10.10;99.90;;;;;;5024915;28;20404;-74
2022/04/08 10:01:43;;;;;;;1999.90;999.90;;;9.90;99.90;;;;;;5023342;28;20801;-74
2022/04/08 10:04:10;;;;;;;1999.90;999.90;;;9.90;99.90;;;;;;5023736;28;20413;-74
2022/04/08 10:06:41;;;;;;;1999.90;999.90;;;10.00;99.90;;;;;;5021072;28;20403;-75
2022/04/08 10:09:12;;;;;;;1999.90;999.90;;;9.90;99.90;;;;;;5021833;28;20992;-73
2022/04/08 10:11:57;;;;;;;1999.90;999.90;;;9.90;99.90;;;;;;5022345;28;20427;-74
2022/04/08 10:14:39;;;;;;;1999.90;999.90;;;9.80;99.90;;;;;;5020047;28;20402;-75
2022/04/08 10:17:05;;;;;;;1999.90;999.90;;;9.80;99.90;;;;;;5020541;28;20438;-75
2022/04/08 10:19:33;;;;;;;1999.90;999.90;;;9.70;99.90;;;;;;5017781;28;20481;-72
2022/04/08 10:22:00;;;;;;;1999.90;999.90;;;9.60;99.90;;;;;;5014504;28;20835;-70
2022/04/08 10:24:28;;;;;;;1999.90;999.90;;;9.50;99.90;;;;;;5017240;28;20416;-74
2022/04/08 10:27:09;;;;;;;1999.90;999.90;;;9.60;99.90;;;;;;5019737;28;20476;-73
2022/04/08 10:29:38;;;;;;;1999.90;999.90;;;9.50;99.90;;;;;;5019403;28;20412;-73
2022/04/08 10:32:12;;;;;;;1999.90;999.90;;;9.50;99.90;;;;;;5020493;28;20499;-73
2022/04/08 10:34:38;;;;;;;1999.90;999.90;;;9.50;99.90;;;;;;5013680;28;20404;-72
2022/04/08 10:37:23;;;;;;;1999.90;999.90;;;9.40;99.90;;;;;;5012202;28;20410;-72
2022/04/08 10:40:02;;;;;;;1999.90;999.90;;;9.50;99.90;;;;;;5013023;28;20453;-73
2022/04/08 10:42:29;;;;;;;1999.90;999.90;;;9.50;99.90;;;;;;5012727;28;20427;-72
2022/04/08 10:44:55;;;;;;;1999.90;999.90;;;9.60;99.90;;;;;;5011982;28;20487;-73
2022/04/08 10:47:23;;;;;;;1999.90;999.90;;;9.70;99.90;;;;;;5012724;28;20485;-72
2022/04/08 10:50:05;;;;;;;1999.90;999.90;;;9.70;99.90;;;;;;5012147;28;20433;-72
2022/04/08 10:52:39;;;;;;;1999.90;999.90;;;9.70;99.90;;;;;;5012101;28;20479;-72
2022/04/08 10:55:10;;;;;;;1999.90;999.90;;;9.70;99.90;;;;;;5012152;28;20437;-73
2022/04/08 10:57:42;;;;;;;1999.90;999.90;;;9.60;99.90;;;;;;5012649;28;20460;-71
2022/04/08 11:00:14;;;;;;;1999.90;999.90;;;9.50;99.90;;;;;;5011961;28;20870;-72
2022/04/08 11:02:43;;;;;;;1999.90;999.90;;;9.60;99.90;;;;;;5012759;28;20956;-71
2022/04/08 11:05:11;;;;;;;1999.90;999.90;;;9.60;99.90;;;;;;5012148;28;20563;-72
2022/04/08 11:07:41;;;;;;;1999.90;999.90;;;9.60;99.90;;;;;;5011910;28;20519;-72
2022/04/08 11:10:12;;;;;;;1999.90;999.90;;;9.70;99.90;;;;;;5012423;28;20434;-72
2022/04/08 11:12:45;;;;;;;1999.90;999.90;;;9.80;99.90;;;;;;5012044;28;20529;-72
2022/04/08 11:15:18;;;;;;;1999.90;999.90;;;9.80;99.90;;;;;;5011540;28;20932;-72
2022/04/08 11:17:46;;;;;;;1999.90;999.90;;;9.90;99.90;;;;;;5012349;28;20422;-72
2022/04/08 11:20:19;;;;;;;1999.90;999.90;;;10.10;99.90;;;;;;5012132;28;20497;-72
2022/04/08 11:22:52;;;;;;;1999.90;999.90;;;10.20;99.90;;;;;;5011652;28;20435;-72
2022/04/08 11:25:28;;;;;;;1999.90;999.90;;;10.30;99.90;;;;;;5011606;28;20446;-72
2022/04/08 11:28:05;;;;;;;1999.90;999.90;;;10.40;99.90;;;;;;5012041;28;20469;-72
2022/04/08 11:30:32;;;;;;;1999.90;999.90;;;10.60;99.90;;;;;;5011683;28;20407;-71
2022/04/08 11:32:59;;;;;;;1999.90;999.90;;;10.60;99.90;;;;;;5011335;28;20447;-72
2022/04/08 11:35:29;;;;;;;1999.90;999.90;;;10.60;99.90;;;;;;5010564;28;20499;-72
2022/04/08 11:37:55;;;;;;;1999.90;999.90;;;10.60;99.90;;;;;;5011241;28;20924;-71
2022/04/08 11:40:21;;;;;;;1999.90;999.90;;;10.20;99.90;;;;;;5012152;28;20995;-72
2022/04/08 11:42:47;;;;;;;1999.90;999.90;;;9.80;99.90;;;;;;5011912;28;20465;-72
2022/04/08 11:45:15;;;;;;;1999.90;999.90;;;9.60;99.90;;;;;;5010966;28;20489;-72
2022/04/08 11:47:46;;;;;;;1999.90;999.90;;;9.50;99.90;;;;;;5011809;28;20444;-72
2022/04/08 11:50:13;;;;;;;1999.90;999.90;;;9.50;99.90;;;;;;5011754;28;20411;-72
2022/04/08 11:52:38;;;;;;;1999.90;999.90;;;9.40;99.90;;;;;;5011014;28;20435;-74
2022/04/08 11:55:09;;;;;;;1999.90;999.90;;;9.70;99.90;;;;;;5011222;28;20775;-71
2022/04/08 11:57:37;;;;;;;1999.90;999.90;;;9.90;99.90;;;;;;5011814;28;20609;-71
2022/04/08 12:00:08;;;;;;;1999.90;999.90;;;10.10;99.90;;;;;;5011304;28;20422;-71
2022/04/08 12:02:33;;;;;;;1999.90;999.90;;;10.10;99.90;;;;;;5014145;28;20463;-71
2022/04/08 12:04:59;;;;;;;1999.90;999.90;;;10.10;99.90;;;;;;5015359;28;20456;-71
2022/04/08 12:07:30;;;;;;;1999.90;999.90;;;10.10;99.90;;;;;;5015226;28;20172;-73